createdAt,value
2023-04-03T00:00:50.630Z,4.91
2023-04-03T00:03:53.272Z,4.92
2023-04-03T00:06:55.529Z,4.90
2023-04-03T00:09:57.629Z,4.92
2023-04-03T00:12:59.720Z,4.88
2023-04-03T00:16:02.868Z,4.84
2023-04-03T00:19:05.008Z,4.84
2023-04-03T00:22:07.087Z,4.78
2023-04-03T00:25:09.912Z,4.75
2023-04-03T00:28:12.542Z,4.73
2023-04-03T00:31:18.131Z,4.72
2023-04-03T00:34:21.084Z,4.70
2023-04-03T00:37:23.193Z,4.71
2023-04-03T00:40:27.861Z,4.70
2023-04-03T00:43:30.115Z,4.71
2023-04-03T00:46:32.223Z,4.66
2023-04-03T00:49:34.531Z,4.64
2023-04-03T00:52:38.965Z,4.64
2023-04-03T00:55:41.977Z,4.66
2023-04-03T00:58:51.371Z,4.73
2023-04-03T01:01:57.831Z,4.76
2023-04-03T01:05:00.027Z,4.80
2023-04-03T01:08:03.091Z,4.85
2023-04-03T01:11:05.930Z,4.90
2023-04-03T01:14:08.259Z,4.93
2023-04-03T01:17:32.050Z,4.96
2023-04-03T01:20:36.124Z,4.95
2023-04-03T01:23:56.851Z,4.99
2023-04-03T01:26:59.500Z,5.01
2023-04-03T01:30:01.679Z,5.03
2023-04-03T01:33:04.144Z,5.03
2023-04-03T01:36:07.550Z,5.06
2023-04-03T01:39:09.893Z,5.06
2023-04-03T01:42:12.670Z,5.05
2023-04-03T01:45:14.821Z,5.07
2023-04-03T01:48:18.158Z,5.07
2023-04-03T01:51:20.285Z,5.07
2023-04-03T01:54:22.496Z,5.07
2023-04-03T01:57:24.534Z,5.06
2023-04-03T02:00:27.564Z,5.06
2023-04-03T02:03:29.799Z,5.03
2023-04-03T02:06:31.832Z,5.06
2023-04-03T02:09:34.265Z,5.06
2023-04-03T02:12:36.666Z,5.04
2023-04-03T02:15:41.624Z,5.03
2023-04-03T02:18:43.890Z,5.02
2023-04-03T02:21:46.318Z,5.05
2023-04-03T02:24:48.516Z,5.05
2023-04-03T02:27:50.741Z,5.01
2023-04-03T02:30:52.956Z,5.02
2023-04-03T02:33:56.777Z,5.02
2023-04-03T02:36:58.809Z,5.02
2023-04-03T02:40:01.031Z,5.01
2023-04-03T02:43:03.130Z,5.02
2023-04-03T02:46:06.148Z,5.00
2023-04-03T02:49:08.494Z,4.99
2023-04-03T02:52:10.954Z,4.98
2023-04-03T02:55:16.375Z,4.98
2023-04-03T02:58:18.442Z,4.96
2023-04-03T03:01:21.946Z,4.96
2023-04-03T03:04:24.226Z,4.95
2023-04-03T03:07:27.176Z,4.94
2023-04-03T03:10:29.326Z,4.92
2023-04-03T03:13:32.363Z,4.88
2023-04-03T03:16:34.479Z,4.89
2023-04-03T03:19:36.580Z,4.87
2023-04-03T03:22:38.750Z,4.86
2023-04-03T03:25:41.983Z,4.83
2023-04-03T03:28:49.891Z,4.80
2023-04-03T03:31:53.226Z,4.76
2023-04-03T03:34:55.547Z,4.73
2023-04-03T03:37:57.549Z,4.70
2023-04-03T03:40:59.870Z,4.67
2023-04-03T03:44:02.216Z,4.62
2023-04-03T03:47:04.651Z,4.55
2023-04-03T03:50:07.591Z,4.51
2023-04-03T03:53:13.852Z,4.47
2023-04-03T03:56:15.864Z,4.41
2023-04-03T03:59:18.281Z,4.39
2023-04-03T04:02:20.514Z,4.34
2023-04-03T04:05:23.177Z,4.29
2023-04-03T04:08:25.998Z,4.23
2023-04-03T04:11:28.901Z,4.18
2023-04-03T04:14:31.387Z,4.11
2023-04-03T04:17:33.560Z,4.09
2023-04-03T04:20:35.908Z,4.07
2023-04-03T04:23:37.970Z,4.06
2023-04-03T04:26:40.081Z,4.06
2023-04-03T04:29:42.120Z,4.04
2023-04-03T04:32:44.605Z,4.03
2023-04-03T04:35:49.382Z,4.02
2023-04-03T04:38:54.099Z,4.02
2023-04-03T04:41:56.381Z,4.06
2023-04-03T04:44:58.489Z,4.06
2023-04-03T04:48:00.597Z,4.04
2023-04-03T04:51:03.562Z,4.03
2023-04-03T04:54:05.938Z,4.05
2023-04-03T04:57:08.214Z,4.04
2023-04-03T05:00:11.407Z,4.08
2023-04-03T05:03:14.818Z,4.09
2023-04-03T05:06:17.099Z,4.10
2023-04-03T05:09:21.102Z,4.12
2023-04-03T05:12:23.227Z,4.17
2023-04-03T05:15:25.373Z,4.26
2023-04-03T05:18:27.477Z,4.32
2023-04-03T05:21:33.582Z,4.32
2023-04-03T05:24:36.088Z,4.35
2023-04-03T05:27:38.317Z,4.38
2023-04-03T05:30:40.465Z,4.52
2023-04-03T05:33:42.571Z,4.59
2023-04-03T05:36:44.985Z,4.64
2023-04-03T05:39:47.310Z,4.63
2023-04-03T05:42:49.364Z,4.63
2023-04-03T05:45:53.302Z,4.61
2023-04-03T05:48:55.583Z,4.54
2023-04-03T05:51:57.781Z,4.66
2023-04-03T05:54:59.877Z,4.72
2023-04-03T05:58:01.938Z,4.74
2023-04-03T06:01:04.373Z,4.74
2023-04-03T06:04:06.739Z,5.12
2023-04-03T06:07:13.727Z,5.30
2023-04-03T06:10:16.072Z,5.09
2023-04-03T06:13:18.314Z,5.11
2023-04-03T06:16:20.685Z,5.42
2023-04-03T06:19:23.317Z,5.16
2023-04-03T06:22:26.782Z,5.18
2023-04-03T06:25:28.864Z,5.30
2023-04-03T06:28:31.072Z,5.16
2023-04-03T06:31:33.157Z,5.02
2023-04-03T06:34:35.377Z,5.03
2023-04-03T06:37:37.446Z,5.15
2023-04-03T06:40:40.193Z,5.17
2023-04-03T06:43:42.509Z,5.32
2023-04-03T06:46:45.406Z,5.33
2023-04-03T06:49:47.834Z,5.52
2023-04-03T06:52:50.220Z,5.42
2023-04-03T06:55:52.297Z,5.46
2023-04-03T06:59:00.999Z,5.44
2023-04-03T07:02:03.491Z,5.54
2023-04-03T07:05:06.778Z,5.59
2023-04-03T07:08:08.881Z,5.50
2023-04-03T07:11:12.231Z,5.51
2023-04-03T07:14:14.415Z,5.62
2023-04-03T07:17:16.687Z,5.44
2023-04-03T07:20:18.853Z,5.58
2023-04-03T07:23:20.922Z,5.66
2023-04-03T07:26:23.601Z,5.80
2023-04-03T07:29:25.799Z,5.66
2023-04-03T07:32:28.086Z,5.60
2023-04-03T07:35:30.747Z,5.60
2023-04-03T07:38:32.857Z,5.42
2023-04-03T07:41:35.380Z,5.42
2023-04-03T07:44:37.761Z,5.43
2023-04-03T07:47:39.811Z,5.40
2023-04-03T07:50:42.304Z,5.42
2023-04-03T07:53:44.446Z,5.42
2023-04-03T07:56:46.546Z,5.36
2023-04-03T07:59:48.877Z,5.39
2023-04-03T08:02:52.854Z,5.44
2023-04-03T08:05:56.009Z,5.50
2023-04-03T08:08:58.615Z,5.45
2023-04-03T08:12:00.892Z,5.42
2023-04-03T08:15:02.945Z,5.53
2023-04-03T08:18:06.032Z,5.59
2023-04-03T08:21:09.894Z,5.72
2023-04-03T08:24:12.202Z,5.90
2023-04-03T08:27:14.458Z,5.78
2023-04-03T08:30:16.575Z,5.83
2023-04-03T08:33:18.609Z,5.99
2023-04-03T08:36:23.628Z,6.11
2023-04-03T08:39:26.057Z,6.18
2023-04-03T08:42:50.336Z,6.17
2023-04-03T08:48:59.816Z,6.52
2023-04-03T08:52:09.002Z,6.60
2023-04-03T08:55:34.349Z,6.53
2023-04-03T08:59:01.666Z,6.61
2023-04-03T09:02:17.369Z,6.65
2023-04-03T09:05:37.297Z,6.62
2023-04-03T09:09:04.484Z,6.67
2023-04-03T09:12:13.212Z,6.71
2023-04-03T09:15:37.889Z,6.53
2023-04-03T09:18:46.678Z,6.48
2023-04-03T09:21:49.175Z,6.39
2023-04-03T09:25:11.551Z,6.52
2023-04-03T09:28:14.051Z,6.49
2023-04-03T09:31:21.411Z,6.53
2023-04-03T09:34:27.495Z,6.49
2023-04-03T09:37:52.696Z,6.58
2023-04-03T09:41:08.636Z,6.59
2023-04-03T09:44:24.320Z,6.52
2023-04-03T09:47:34.992Z,6.49
2023-04-03T09:50:37.972Z,6.59
2023-04-03T09:53:43.451Z,6.59
2023-04-03T09:56:51.831Z,6.55
2023-04-03T10:00:02.513Z,6.91
2023-04-03T10:03:05.720Z,9.30
2023-04-03T10:06:25.051Z,8.25
2023-04-03T10:09:28.505Z,7.79
2023-04-03T10:12:31.135Z,7.55
2023-04-03T10:15:42.444Z,7.74
2023-04-03T10:18:50.669Z,7.36
2023-04-03T10:22:19.490Z,7.36
2023-04-03T10:25:48.758Z,7.64
2023-04-03T10:29:04.259Z,9.20
2023-04-03T10:32:24.477Z,8.70
2023-04-03T10:35:49.309Z,8.30
2023-04-03T10:38:57.283Z,7.84
2023-04-03T10:42:20.955Z,7.59
2023-04-03T10:45:23.050Z,7.51
2023-04-03T10:48:43.379Z,7.47
2023-04-03T10:51:49.285Z,7.62
2023-04-03T10:55:22.056Z,7.65
2023-04-03T10:58:35.785Z,7.90
2023-04-03T11:01:42.717Z,8.28
2023-04-03T11:04:49.298Z,8.18
2023-04-03T11:07:54.546Z,7.88
2023-04-03T11:11:01.291Z,7.75
2023-04-03T11:14:22.956Z,7.41
2023-04-03T11:17:37.045Z,7.59
2023-04-03T11:20:45.285Z,8.04
2023-04-03T11:23:50.067Z,8.33
2023-04-03T11:26:54.958Z,8.24
2023-04-03T11:29:57.868Z,7.91
2023-04-03T11:33:35.424Z,7.76
2023-04-03T11:36:46.182Z,7.55
2023-04-03T11:39:55.581Z,7.88
2023-04-03T11:43:00.682Z,8.53
2023-04-03T11:46:05.765Z,8.80
2023-04-03T11:49:46.053Z,8.60
2023-04-03T11:52:51.162Z,8.03
2023-04-03T11:55:58.754Z,7.56
2023-04-03T11:59:15.810Z,7.43
2023-04-03T12:02:51.148Z,7.52
2023-04-03T12:05:58.376Z,7.92
2023-04-03T12:09:00.555Z,7.58
2023-04-03T12:12:29.632Z,7.29
2023-04-03T12:15:37.944Z,7.36
2023-04-03T12:19:05.821Z,7.30
2023-04-03T12:22:11.346Z,8.06
2023-04-03T12:25:50.992Z,7.77
2023-04-03T12:28:54.854Z,8.16
2023-04-03T12:32:08.549Z,9.91
2023-04-03T12:35:30.810Z,9.54
2023-04-03T12:38:55.142Z,8.61
2023-04-03T12:42:22.981Z,8.25
2023-04-03T12:45:27.301Z,8.82
2023-04-03T12:48:33.117Z,7.95
2023-04-03T12:51:44.225Z,7.97
2023-04-03T12:54:49.138Z,9.20
2023-04-03T12:57:51.464Z,9.90
2023-04-03T13:01:19.844Z,10.32
2023-04-03T13:04:22.464Z,10.27
2023-04-03T13:07:35.759Z,9.80
2023-04-03T13:10:58.924Z,10.37
2023-04-03T13:14:06.367Z,10.17
2023-04-03T13:17:15.489Z,10.04
2023-04-03T13:20:30.750Z,10.27
2023-04-03T13:23:36.155Z,10.45
2023-04-03T13:26:39.140Z,10.63
2023-04-03T13:29:41.879Z,11.17
2023-04-03T13:32:45.220Z,10.88
2023-04-03T13:35:47.739Z,10.96
2023-04-03T13:39:25.116Z,11.71
2023-04-03T13:42:30.804Z,11.29
2023-04-03T13:45:35.887Z,10.35
2023-04-03T13:48:46.174Z,10.05
2023-04-03T13:51:54.229Z,10.57
2023-04-03T13:55:24.627Z,10.42
2023-04-03T13:58:31.472Z,10.70
2023-04-03T14:01:43.345Z,10.83
2023-04-03T14:04:45.692Z,10.99
2023-04-03T14:07:47.877Z,10.37
2023-04-03T14:10:51.013Z,10.00
2023-04-03T14:13:53.948Z,9.78
2023-04-03T14:17:00.978Z,10.13
2023-04-03T14:20:04.210Z,9.90
2023-04-03T14:23:07.501Z,9.95
2023-04-03T14:26:21.964Z,10.06
2023-04-03T14:29:24.620Z,10.10
2023-04-03T14:32:28.429Z,10.16
2023-04-03T14:35:30.876Z,10.21
2023-04-03T14:38:32.966Z,9.95
2023-04-03T14:41:35.309Z,9.64
2023-04-03T14:44:37.546Z,9.66
2023-04-03T14:47:58.996Z,9.80
2023-04-03T14:51:05.832Z,9.06
2023-04-03T14:54:15.631Z,9.03
2023-04-03T14:57:19.850Z,8.88
2023-04-03T15:00:24.909Z,8.75
2023-04-03T15:03:29.339Z,8.69
2023-04-03T15:06:35.459Z,8.64
2023-04-03T15:09:39.139Z,8.18
2023-04-03T15:12:46.074Z,8.99
2023-04-03T15:15:53.765Z,9.14
2023-04-03T15:18:57.741Z,8.97
2023-04-03T15:22:01.645Z,9.11
2023-04-03T15:25:07.329Z,8.22
2023-04-03T15:28:24.270Z,8.20
2023-04-03T15:31:29.634Z,8.27
2023-04-03T15:34:33.482Z,8.22
2023-04-03T15:37:36.506Z,7.74
2023-04-03T15:40:39.603Z,7.08
2023-04-03T15:43:41.749Z,6.77
2023-04-03T15:46:43.910Z,6.69
2023-04-03T15:49:46.428Z,6.93
2023-04-03T15:52:49.087Z,7.14
2023-04-03T15:55:51.313Z,6.67
2023-04-03T15:58:53.529Z,6.31
2023-04-03T16:01:55.900Z,6.07
2023-04-03T16:04:58.227Z,5.86
2023-04-03T16:08:01.903Z,6.01
2023-04-03T16:11:04.300Z,5.88
2023-04-03T16:14:09.660Z,5.88
2023-04-03T16:17:11.855Z,5.88
2023-04-03T16:20:19.789Z,5.92
2023-04-03T16:23:22.626Z,5.88
2023-04-03T16:26:24.755Z,5.64
2023-04-03T16:29:26.831Z,5.49
2023-04-03T16:32:31.639Z,5.28
2023-04-03T16:35:34.033Z,5.28
2023-04-03T16:38:37.183Z,5.24
2023-04-03T16:41:39.261Z,5.23
2023-04-03T16:44:41.367Z,5.09
2023-04-03T16:47:43.835Z,5.16
2023-04-03T16:50:50.109Z,5.09
2023-04-03T16:53:52.791Z,5.05
2023-04-03T16:56:54.995Z,5.02
2023-04-03T16:59:57.071Z,4.98
2023-04-03T17:02:59.432Z,4.92
2023-04-03T17:06:01.793Z,4.93
2023-04-03T17:09:04.166Z,4.87
2023-04-03T17:12:07.302Z,4.72
2023-04-03T17:15:10.184Z,4.70
2023-04-03T17:18:12.538Z,4.67
2023-04-03T17:21:15.971Z,4.63
2023-04-03T17:24:18.283Z,4.59
2023-04-03T17:27:20.494Z,4.53
2023-04-03T17:30:23.063Z,4.48
2023-04-03T17:33:26.590Z,4.48
2023-04-03T17:36:33.729Z,4.55
2023-04-03T17:39:35.874Z,4.48
2023-04-03T17:42:38.873Z,4.49
2023-04-03T17:45:41.516Z,4.48
2023-04-03T17:48:44.641Z,4.47
2023-04-03T17:51:47.314Z,4.42
2023-04-03T17:54:50.036Z,4.50
2023-04-03T17:57:52.100Z,4.45
2023-04-03T18:00:55.536Z,4.53
2023-04-03T18:04:01.088Z,4.50
2023-04-03T18:07:04.845Z,4.52
2023-04-03T18:10:09.588Z,4.49
2023-04-03T18:13:16.102Z,4.43
2023-04-03T18:16:20.393Z,4.40
2023-04-03T18:19:24.748Z,4.36
2023-04-03T18:22:28.055Z,4.35
2023-04-03T18:28:35.915Z,4.38
2023-04-03T18:31:42.268Z,4.27
2023-04-03T18:34:45.302Z,4.22
2023-04-03T18:37:49.551Z,4.20
2023-04-03T18:40:53.585Z,4.12
2023-04-03T18:43:58.753Z,4.07
2023-04-03T18:47:01.703Z,4.00
2023-04-03T18:50:07.228Z,3.96
2023-04-03T18:53:11.270Z,3.88
2023-04-03T18:56:14.652Z,3.83
2023-04-03T18:59:17.634Z,3.74
2023-04-03T19:02:24.369Z,3.71
2023-04-03T19:05:28.007Z,3.67
2023-04-03T19:08:33.452Z,3.63
2023-04-03T19:11:37.324Z,3.62
2023-04-03T19:14:40.497Z,3.58
2023-04-03T19:17:43.511Z,3.58
2023-04-03T19:20:46.887Z,3.57
2023-04-03T19:23:49.598Z,3.60
2023-04-03T19:26:52.588Z,3.61
2023-04-03T19:29:55.845Z,3.59
2023-04-03T19:32:58.913Z,3.61
2023-04-03T19:36:01.959Z,3.58
2023-04-03T19:39:06.740Z,3.55
2023-04-03T19:42:11.018Z,3.52
2023-04-03T19:45:16.592Z,3.46
2023-04-03T19:48:22.622Z,3.47
2023-04-03T19:51:26.825Z,3.44
2023-04-03T19:54:30.615Z,3.41
2023-04-03T19:57:33.677Z,3.35
2023-04-03T20:00:36.834Z,3.36
2023-04-03T20:03:40.521Z,3.36
2023-04-03T20:06:43.022Z,3.31
2023-04-03T20:09:46.082Z,3.30
2023-04-03T20:12:50.829Z,3.28
2023-04-03T20:15:54.085Z,3.26
2023-04-03T20:18:57.093Z,3.28
2023-04-03T20:22:01.398Z,3.23
2023-04-03T20:25:06.853Z,3.23
2023-04-03T20:28:10.211Z,3.19
2023-04-03T20:31:14.866Z,3.21
2023-04-03T20:34:18.504Z,3.15
2023-04-03T20:37:24.211Z,3.13
2023-04-03T20:40:26.755Z,3.14
2023-04-03T20:43:29.452Z,3.14
2023-04-03T20:46:49.039Z,3.12
2023-04-03T20:49:54.092Z,3.11
2023-04-03T20:52:57.803Z,3.06
2023-04-03T20:56:01.121Z,3.06
2023-04-03T20:59:04.956Z,3.03
2023-04-03T21:02:07.132Z,3.03
2023-04-03T21:05:11.607Z,3.00
2023-04-03T21:08:50.726Z,2.97
2023-04-03T21:12:30.465Z,2.97
2023-04-03T21:15:52.176Z,2.93
2023-04-03T21:19:13.706Z,2.90
2023-04-03T21:22:16.311Z,2.92
2023-04-03T21:25:18.434Z,2.88
2023-04-03T21:28:21.697Z,2.91
2023-04-03T21:31:24.410Z,2.87
2023-04-03T21:34:28.991Z,2.82
2023-04-03T21:37:34.118Z,2.82
2023-04-03T21:40:36.513Z,2.80
2023-04-03T21:43:38.645Z,2.76
2023-04-03T21:46:40.822Z,2.76
2023-04-03T21:49:42.981Z,2.75
2023-04-03T21:52:45.360Z,2.72
2023-04-03T21:55:54.620Z,2.69
2023-04-03T21:58:56.905Z,2.68
2023-04-03T22:01:59.172Z,2.64
2023-04-03T22:05:01.772Z,2.63
2023-04-03T22:08:04.368Z,2.63
2023-04-03T22:11:09.617Z,2.60
2023-04-03T22:14:12.317Z,2.58
2023-04-03T22:17:14.633Z,2.58
2023-04-03T22:20:17.221Z,2.53
2023-04-03T22:23:19.700Z,2.52
2023-04-03T22:26:21.974Z,2.46
2023-04-03T22:29:24.077Z,2.45
2023-04-03T22:32:26.280Z,2.41
2023-04-03T22:35:28.517Z,2.40
2023-04-03T22:38:30.680Z,2.39
2023-04-03T22:41:32.779Z,2.40
2023-04-03T22:44:36.745Z,2.40
2023-04-03T22:47:38.976Z,2.39
2023-04-03T22:50:41.497Z,2.40
2023-04-03T22:53:43.800Z,2.35
2023-04-03T22:56:45.910Z,2.35
2023-04-03T22:59:47.952Z,2.36
2023-04-03T23:02:50.199Z,2.37
2023-04-03T23:05:53.444Z,2.35
2023-04-03T23:08:56.537Z,2.35
2023-04-03T23:11:58.727Z,2.36
2023-04-03T23:15:00.836Z,2.34
2023-04-03T23:18:02.940Z,2.33
2023-04-03T23:21:05.256Z,2.32
2023-04-03T23:24:08.610Z,2.31
2023-04-03T23:27:10.745Z,2.31
2023-04-03T23:30:13.065Z,2.30
2023-04-03T23:33:15.614Z,2.29
2023-04-03T23:36:18.218Z,2.25
2023-04-03T23:39:22.145Z,2.24
2023-04-03T23:42:24.261Z,2.20
2023-04-03T23:45:27.150Z,2.19
2023-04-03T23:48:29.444Z,2.19
2023-04-03T23:51:31.490Z,2.16
2023-04-03T23:54:33.590Z,2.14
2023-04-03T23:57:35.854Z,2.15
